sensor_id;sensor_type;location;lat;lon;timestamp;P1;durP1;ratioP1;P2;durP2;ratioP2
77080;SDS011;66009;53.150;18.160;2023-05-07T00:01:46;9.20;;;5.40;;
77080;SDS011;66009;53.150;18.160;2023-05-07T00:04:12;7.90;;;4.60;;
77080;SDS011;66009;53.150;18.160;2023-05-07T00:06:38;17.30;;;6.60;;
77080;SDS011;66009;53.150;18.160;2023-05-07T00:09:04;9.10;;;5.60;;
77080;SDS011;66009;53.150;18.160;2023-05-07T00:11:31;9.20;;;6.20;;
77080;SDS011;66009;53.150;18.160;2023-05-07T00:13:56;8.60;;;5.30;;
77080;SDS011;66009;53.150;18.160;2023-05-07T00:16:22;11.00;;;7.20;;
77080;SDS011;66009;53.150;18.160;2023-05-07T00:18:48;10.30;;;6.80;;
77080;SDS011;66009;53.150;18.160;2023-05-07T00:21:14;11.20;;;7.00;;
77080;SDS011;66009;53.150;18.160;2023-05-07T00:23:40;11.20;;;7.00;;
77080;SDS011;66009;53.150;18.160;2023-05-07T00:26:05;9.50;;;6.30;;
77080;SDS011;66009;53.150;18.160;2023-05-07T00:28:31;11.80;;;7.00;;
77080;SDS011;66009;53.150;18.160;2023-05-07T00:30:57;9.60;;;5.70;;
77080;SDS011;66009;53.150;18.160;2023-05-07T00:33:23;10.80;;;6.40;;
77080;SDS011;66009;53.150;18.160;2023-05-07T00:35:49;11.20;;;6.90;;
77080;SDS011;66009;53.150;18.160;2023-05-07T00:38:15;12.00;;;7.90;;
77080;SDS011;66009;53.150;18.160;2023-05-07T00:40:41;10.80;;;7.10;;
77080;SDS011;66009;53.150;18.160;2023-05-07T00:43:07;14.20;;;7.30;;
77080;SDS011;66009;53.150;18.160;2023-05-07T00:45:32;13.20;;;7.30;;
77080;SDS011;66009;53.150;18.160;2023-05-07T00:48:01;13.50;;;7.50;;
77080;SDS011;66009;53.150;18.160;2023-05-07T00:52:53;11.20;;;6.20;;
77080;SDS011;66009;53.150;18.160;2023-05-07T00:55:19;15.00;;;6.70;;
77080;SDS011;66009;53.150;18.160;2023-05-07T00:57:45;12.50;;;7.60;;
77080;SDS011;66009;53.150;18.160;2023-05-07T01:00:11;11.80;;;6.70;;
77080;SDS011;66009;53.150;18.160;2023-05-07T01:02:38;9.80;;;6.60;;
77080;SDS011;66009;53.150;18.160;2023-05-07T01:05:04;11.00;;;6.70;;
77080;SDS011;66009;53.150;18.160;2023-05-07T01:07:31;10.90;;;6.20;;
77080;SDS011;66009;53.150;18.160;2023-05-07T01:09:58;15.80;;;6.50;;
77080;SDS011;66009;53.150;18.160;2023-05-07T01:12:24;11.00;;;5.80;;
77080;SDS011;66009;53.150;18.160;2023-05-07T01:14:50;11.20;;;6.60;;
77080;SDS011;66009;53.150;18.160;2023-05-07T01:17:16;11.10;;;7.10;;
77080;SDS011;66009;53.150;18.160;2023-05-07T01:19:43;10.20;;;5.70;;
77080;SDS011;66009;53.150;18.160;2023-05-07T01:22:10;10.10;;;6.10;;
77080;SDS011;66009;53.150;18.160;2023-05-07T01:24:44;12.50;;;6.70;;
77080;SDS011;66009;53.150;18.160;2023-05-07T01:27:11;11.40;;;7.50;;
77080;SDS011;66009;53.150;18.160;2023-05-07T01:29:37;11.20;;;7.00;;
77080;SDS011;66009;53.150;18.160;2023-05-07T01:32:03;11.20;;;6.50;;
77080;SDS011;66009;53.150;18.160;2023-05-07T01:34:30;14.00;;;7.40;;
77080;SDS011;66009;53.150;18.160;2023-05-07T01:36:56;10.40;;;6.20;;
77080;SDS011;66009;53.150;18.160;2023-05-07T01:39:24;12.50;;;6.90;;
77080;SDS011;66009;53.150;18.160;2023-05-07T01:41:51;12.50;;;6.40;;
77080;SDS011;66009;53.150;18.160;2023-05-07T01:44:17;9.90;;;6.50;;
77080;SDS011;66009;53.150;18.160;2023-05-07T01:46:43;11.70;;;6.40;;
77080;SDS011;66009;53.150;18.160;2023-05-07T01:49:10;9.20;;;5.60;;
77080;SDS011;66009;53.150;18.160;2023-05-07T01:51:35;10.70;;;6.00;;
77080;SDS011;66009;53.150;18.160;2023-05-07T01:54:01;10.40;;;6.00;;
77080;SDS011;66009;53.150;18.160;2023-05-07T01:56:27;11.50;;;5.90;;
77080;SDS011;66009;53.150;18.160;2023-05-07T01:58:54;10.40;;;6.30;;
77080;SDS011;66009;53.150;18.160;2023-05-07T02:01:20;11.80;;;6.60;;
77080;SDS011;66009;53.150;18.160;2023-05-07T02:03:46;11.40;;;6.70;;
77080;SDS011;66009;53.150;18.160;2023-05-07T02:06:16;12.70;;;6.80;;
77080;SDS011;66009;53.150;18.160;2023-05-07T02:08:42;12.80;;;7.00;;
77080;SDS011;66009;53.150;18.160;2023-05-07T02:11:09;12.90;;;7.00;;
77080;SDS011;66009;53.150;18.160;2023-05-07T02:13:35;12.80;;;6.10;;
77080;SDS011;66009;53.150;18.160;2023-05-07T02:16:02;10.00;;;6.20;;
77080;SDS011;66009;53.150;18.160;2023-05-07T02:18:28;10.40;;;5.80;;
77080;SDS011;66009;53.150;18.160;2023-05-07T02:20:54;12.00;;;5.40;;
77080;SDS011;66009;53.150;18.160;2023-05-07T02:23:20;11.00;;;6.30;;
77080;SDS011;66009;53.150;18.160;2023-05-07T02:25:45;11.30;;;6.50;;
77080;SDS011;66009;53.150;18.160;2023-05-07T02:28:11;13.00;;;6.80;;
77080;SDS011;66009;53.150;18.160;2023-05-07T02:30:42;13.60;;;7.10;;
77080;SDS011;66009;53.150;18.160;2023-05-07T02:33:08;12.80;;;6.70;;
77080;SDS011;66009;53.150;18.160;2023-05-07T02:35:34;12.80;;;6.90;;
77080;SDS011;66009;53.150;18.160;2023-05-07T02:38:00;11.90;;;7.20;;
77080;SDS011;66009;53.150;18.160;2023-05-07T02:40:26;10.80;;;6.70;;
77080;SDS011;66009;53.150;18.160;2023-05-07T02:42:52;12.20;;;6.90;;
77080;SDS011;66009;53.150;18.160;2023-05-07T02:45:18;13.10;;;6.90;;
77080;SDS011;66009;53.150;18.160;2023-05-07T02:47:44;11.60;;;5.50;;
77080;SDS011;66009;53.150;18.160;2023-05-07T02:50:10;12.10;;;7.30;;
77080;SDS011;66009;53.150;18.160;2023-05-07T02:52:36;12.50;;;6.20;;
77080;SDS011;66009;53.150;18.160;2023-05-07T02:55:02;12.70;;;6.30;;
77080;SDS011;66009;53.150;18.160;2023-05-07T02:57:28;10.70;;;6.20;;
77080;SDS011;66009;53.150;18.160;2023-05-07T02:59:54;10.90;;;5.90;;
77080;SDS011;66009;53.150;18.160;2023-05-07T03:02:20;10.80;;;6.10;;
77080;SDS011;66009;53.150;18.160;2023-05-07T03:04:45;15.00;;;7.40;;
77080;SDS011;66009;53.150;18.160;2023-05-07T03:07:11;12.70;;;6.90;;
77080;SDS011;66009;53.150;18.160;2023-05-07T03:09:37;11.90;;;6.30;;
77080;SDS011;66009;53.150;18.160;2023-05-07T03:12:03;12.60;;;7.00;;
77080;SDS011;66009;53.150;18.160;2023-05-07T03:14:29;15.40;;;8.10;;
77080;SDS011;66009;53.150;18.160;2023-05-07T03:16:55;12.50;;;6.30;;
77080;SDS011;66009;53.150;18.160;2023-05-07T03:19:21;10.10;;;6.00;;
77080;SDS011;66009;53.150;18.160;2023-05-07T03:21:47;11.10;;;6.30;;
77080;SDS011;66009;53.150;18.160;2023-05-07T03:24:12;11.10;;;6.00;;
77080;SDS011;66009;53.150;18.160;2023-05-07T03:26:38;10.90;;;6.20;;
77080;SDS011;66009;53.150;18.160;2023-05-07T03:29:04;11.90;;;6.30;;
77080;SDS011;66009;53.150;18.160;2023-05-07T03:31:31;11.00;;;6.00;;
77080;SDS011;66009;53.150;18.160;2023-05-07T03:33:57;9.30;;;5.70;;
77080;SDS011;66009;53.150;18.160;2023-05-07T03:36:23;12.70;;;7.00;;
77080;SDS011;66009;53.150;18.160;2023-05-07T03:38:49;12.30;;;6.80;;
77080;SDS011;66009;53.150;18.160;2023-05-07T03:41:18;13.10;;;6.60;;
77080;SDS011;66009;53.150;18.160;2023-05-07T03:43:44;12.00;;;7.10;;
77080;SDS011;66009;53.150;18.160;2023-05-07T03:46:10;11.60;;;6.50;;
77080;SDS011;66009;53.150;18.160;2023-05-07T03:48:36;10.90;;;7.30;;
77080;SDS011;66009;53.150;18.160;2023-05-07T03:51:01;10.80;;;6.10;;
77080;SDS011;66009;53.150;18.160;2023-05-07T03:53:30;12.40;;;6.60;;
77080;SDS011;66009;53.150;18.160;2023-05-07T03:55:56;9.30;;;6.00;;
77080;SDS011;66009;53.150;18.160;2023-05-07T03:58:22;13.20;;;7.30;;
77080;SDS011;66009;53.150;18.160;2023-05-07T04:00:48;10.80;;;6.10;;
77080;SDS011;66009;53.150;18.160;2023-05-07T04:03:18;11.80;;;6.80;;
77080;SDS011;66009;53.150;18.160;2023-05-07T04:05:44;14.20;;;7.00;;
77080;SDS011;66009;53.150;18.160;2023-05-07T04:08:10;11.30;;;6.20;;
77080;SDS011;66009;53.150;18.160;2023-05-07T04:10:39;11.50;;;6.80;;
77080;SDS011;66009;53.150;18.160;2023-05-07T04:13:08;13.20;;;7.70;;
77080;SDS011;66009;53.150;18.160;2023-05-07T04:15:35;12.70;;;7.60;;
77080;SDS011;66009;53.150;18.160;2023-05-07T04:18:00;11.70;;;7.30;;
77080;SDS011;66009;53.150;18.160;2023-05-07T04:20:26;14.60;;;8.00;;
77080;SDS011;66009;53.150;18.160;2023-05-07T04:22:57;12.70;;;8.00;;
77080;SDS011;66009;53.150;18.160;2023-05-07T04:25:23;11.00;;;7.70;;
77080;SDS011;66009;53.150;18.160;2023-05-07T04:27:52;10.60;;;6.60;;
77080;SDS011;66009;53.150;18.160;2023-05-07T04:30:18;9.50;;;6.20;;
77080;SDS011;66009;53.150;18.160;2023-05-07T04:32:44;10.40;;;6.50;;
77080;SDS011;66009;53.150;18.160;2023-05-07T04:35:10;9.80;;;6.30;;
77080;SDS011;66009;53.150;18.160;2023-05-07T04:37:37;9.30;;;6.20;;
77080;SDS011;66009;53.150;18.160;2023-05-07T04:40:03;9.90;;;6.60;;
77080;SDS011;66009;53.150;18.160;2023-05-07T04:42:29;11.10;;;6.80;;
77080;SDS011;66009;53.150;18.160;2023-05-07T04:44:55;10.90;;;6.90;;
77080;SDS011;66009;53.150;18.160;2023-05-07T04:47:22;13.00;;;8.00;;
77080;SDS011;66009;53.150;18.160;2023-05-07T04:49:47;13.00;;;7.70;;
77080;SDS011;66009;53.150;18.160;2023-05-07T04:52:13;12.70;;;7.50;;
77080;SDS011;66009;53.150;18.160;2023-05-07T04:54:39;11.30;;;7.00;;
77080;SDS011;66009;53.150;18.160;2023-05-07T04:57:05;11.00;;;7.10;;
77080;SDS011;66009;53.150;18.160;2023-05-07T04:59:32;12.10;;;7.40;;
77080;SDS011;66009;53.150;18.160;2023-05-07T05:01:58;13.50;;;7.70;;
77080;SDS011;66009;53.150;18.160;2023-05-07T05:04:24;13.40;;;8.00;;
77080;SDS011;66009;53.150;18.160;2023-05-07T05:06:50;12.20;;;7.20;;
77080;SDS011;66009;53.150;18.160;2023-05-07T05:09:16;13.00;;;8.70;;
77080;SDS011;66009;53.150;18.160;2023-05-07T05:11:43;14.00;;;7.30;;
77080;SDS011;66009;53.150;18.160;2023-05-07T05:14:08;15.20;;;7.80;;
77080;SDS011;66009;53.150;18.160;2023-05-07T05:16:34;15.60;;;8.40;;
77080;SDS011;66009;53.150;18.160;2023-05-07T05:19:01;12.60;;;8.50;;
77080;SDS011;66009;53.150;18.160;2023-05-07T05:21:26;14.60;;;9.10;;
77080;SDS011;66009;53.150;18.160;2023-05-07T05:23:55;14.90;;;8.90;;
77080;SDS011;66009;53.150;18.160;2023-05-07T05:26:22;13.50;;;8.10;;
77080;SDS011;66009;53.150;18.160;2023-05-07T05:28:48;11.50;;;7.60;;
77080;SDS011;66009;53.150;18.160;2023-05-07T05:31:14;12.50;;;7.50;;
77080;SDS011;66009;53.150;18.160;2023-05-07T05:33:40;11.50;;;7.60;;
77080;SDS011;66009;53.150;18.160;2023-05-07T05:36:08;11.20;;;7.60;;
77080;SDS011;66009;53.150;18.160;2023-05-07T05:38:36;12.70;;;7.80;;
77080;SDS011;66009;53.150;18.160;2023-05-07T05:41:02;13.40;;;7.80;;
77080;SDS011;66009;53.150;18.160;2023-05-07T05:43:28;13.00;;;8.10;;
77080;SDS011;66009;53.150;18.160;2023-05-07T05:45:55;14.80;;;8.90;;
77080;SDS011;66009;53.150;18.160;2023-05-07T05:48:21;16.60;;;10.40;;
77080;SDS011;66009;53.150;18.160;2023-05-07T05:50:47;18.30;;;10.50;;
77080;SDS011;66009;53.150;18.160;2023-05-07T05:53:13;17.30;;;10.90;;
77080;SDS011;66009;53.150;18.160;2023-05-07T05:55:39;17.70;;;9.80;;
77080;SDS011;66009;53.150;18.160;2023-05-07T05:58:05;13.40;;;8.70;;
77080;SDS011;66009;53.150;18.160;2023-05-07T06:00:33;14.30;;;9.50;;
77080;SDS011;66009;53.150;18.160;2023-05-07T06:03:01;14.60;;;9.50;;
77080;SDS011;66009;53.150;18.160;2023-05-07T06:05:27;13.30;;;8.20;;
77080;SDS011;66009;53.150;18.160;2023-05-07T06:07:54;14.60;;;8.50;;
77080;SDS011;66009;53.150;18.160;2023-05-07T06:10:20;13.60;;;9.30;;
77080;SDS011;66009;53.150;18.160;2023-05-07T06:12:46;13.00;;;7.80;;
77080;SDS011;66009;53.150;18.160;2023-05-07T06:15:12;14.30;;;8.80;;
77080;SDS011;66009;53.150;18.160;2023-05-07T06:17:38;11.50;;;7.20;;
77080;SDS011;66009;53.150;18.160;2023-05-07T06:20:05;13.90;;;7.00;;
77080;SDS011;66009;53.150;18.160;2023-05-07T06:22:31;12.70;;;7.40;;
77080;SDS011;66009;53.150;18.160;2023-05-07T06:24:57;12.30;;;7.00;;
77080;SDS011;66009;53.150;18.160;2023-05-07T06:27:23;10.50;;;6.50;;
77080;SDS011;66009;53.150;18.160;2023-05-07T06:29:49;13.80;;;6.90;;
77080;SDS011;66009;53.150;18.160;2023-05-07T06:32:16;11.10;;;6.60;;
77080;SDS011;66009;53.150;18.160;2023-05-07T06:34:43;10.40;;;5.70;;
77080;SDS011;66009;53.150;18.160;2023-05-07T06:37:09;10.20;;;6.20;;
77080;SDS011;66009;53.150;18.160;2023-05-07T06:39:49;12.20;;;6.80;;
77080;SDS011;66009;53.150;18.160;2023-05-07T06:42:15;12.10;;;7.00;;
77080;SDS011;66009;53.150;18.160;2023-05-07T06:44:42;10.80;;;5.50;;
77080;SDS011;66009;53.150;18.160;2023-05-07T06:47:10;9.30;;;5.20;;
77080;SDS011;66009;53.150;18.160;2023-05-07T06:49:38;8.30;;;5.50;;
77080;SDS011;66009;53.150;18.160;2023-05-07T06:52:04;10.30;;;4.70;;
77080;SDS011;66009;53.150;18.160;2023-05-07T06:54:30;8.10;;;4.50;;
77080;SDS011;66009;53.150;18.160;2023-05-07T06:56:56;10.30;;;5.00;;
77080;SDS011;66009;53.150;18.160;2023-05-07T06:59:23;7.80;;;4.20;;
77080;SDS011;66009;53.150;18.160;2023-05-07T07:01:49;8.30;;;4.80;;
77080;SDS011;66009;53.150;18.160;2023-05-07T07:04:15;8.50;;;4.50;;
77080;SDS011;66009;53.150;18.160;2023-05-07T07:06:41;7.70;;;4.50;;
77080;SDS011;66009;53.150;18.160;2023-05-07T07:09:09;6.70;;;4.20;;
77080;SDS011;66009;53.150;18.160;2023-05-07T07:11:35;8.40;;;4.40;;
77080;SDS011;66009;53.150;18.160;2023-05-07T07:14:01;6.60;;;5.00;;
77080;SDS011;66009;53.150;18.160;2023-05-07T07:16:28;9.10;;;4.60;;
77080;SDS011;66009;53.150;18.160;2023-05-07T07:18:53;6.40;;;4.00;;
77080;SDS011;66009;53.150;18.160;2023-05-07T07:21:19;12.20;;;4.60;;
77080;SDS011;66009;53.150;18.160;2023-05-07T07:23:45;7.80;;;4.50;;
77080;SDS011;66009;53.150;18.160;2023-05-07T07:26:11;7.00;;;3.80;;
77080;SDS011;66009;53.150;18.160;2023-05-07T07:28:43;6.40;;;4.30;;
77080;SDS011;66009;53.150;18.160;2023-05-07T07:31:09;6.90;;;3.90;;
77080;SDS011;66009;53.150;18.160;2023-05-07T07:33:35;6.40;;;3.90;;
77080;SDS011;66009;53.150;18.160;2023-05-07T07:36:01;6.80;;;4.20;;
77080;SDS011;66009;53.150;18.160;2023-05-07T07:38:27;5.20;;;3.70;;
77080;SDS011;66009;53.150;18.160;2023-05-07T07:40:53;6.40;;;4.30;;
77080;SDS011;66009;53.150;18.160;2023-05-07T07:43:19;6.10;;;4.10;;
77080;SDS011;66009;53.150;18.160;2023-05-07T07:45:45;5.90;;;3.90;;
77080;SDS011;66009;53.150;18.160;2023-05-07T07:48:11;7.60;;;3.90;;
77080;SDS011;66009;53.150;18.160;2023-05-07T07:50:38;6.50;;;3.60;;
77080;SDS011;66009;53.150;18.160;2023-05-07T07:53:04;5.80;;;3.60;;
77080;SDS011;66009;53.150;18.160;2023-05-07T07:55:30;5.80;;;3.90;;
77080;SDS011;66009;53.150;18.160;2023-05-07T07:57:56;6.30;;;4.00;;
77080;SDS011;66009;53.150;18.160;2023-05-07T08:00:23;6.20;;;4.00;;
77080;SDS011;66009;53.150;18.160;2023-05-07T08:05:19;6.10;;;3.50;;
77080;SDS011;66009;53.150;18.160;2023-05-07T08:07:47;6.30;;;3.80;;
77080;SDS011;66009;53.150;18.160;2023-05-07T08:10:18;5.70;;;3.40;;
77080;SDS011;66009;53.150;18.160;2023-05-07T08:12:48;7.20;;;3.50;;
77080;SDS011;66009;53.150;18.160;2023-05-07T08:15:15;7.40;;;3.50;;
77080;SDS011;66009;53.150;18.160;2023-05-07T08:17:41;5.00;;;3.20;;
77080;SDS011;66009;53.150;18.160;2023-05-07T08:20:07;6.20;;;3.10;;
77080;SDS011;66009;53.150;18.160;2023-05-07T08:22:34;5.80;;;3.10;;
77080;SDS011;66009;53.150;18.160;2023-05-07T08:25:01;5.00;;;3.20;;
77080;SDS011;66009;53.150;18.160;2023-05-07T08:27:27;4.60;;;3.10;;
77080;SDS011;66009;53.150;18.160;2023-05-07T08:29:53;4.30;;;2.80;;
77080;SDS011;66009;53.150;18.160;2023-05-07T08:32:20;10.70;;;3.40;;
77080;SDS011;66009;53.150;18.160;2023-05-07T08:34:46;5.90;;;3.00;;
77080;SDS011;66009;53.150;18.160;2023-05-07T08:37:13;4.90;;;3.20;;
77080;SDS011;66009;53.150;18.160;2023-05-07T08:39:39;5.50;;;3.30;;
77080;SDS011;66009;53.150;18.160;2023-05-07T08:42:09;4.80;;;3.20;;
77080;SDS011;66009;53.150;18.160;2023-05-07T08:44:35;4.70;;;2.90;;
77080;SDS011;66009;53.150;18.160;2023-05-07T08:47:02;4.70;;;3.00;;
77080;SDS011;66009;53.150;18.160;2023-05-07T08:49:31;5.00;;;3.40;;
77080;SDS011;66009;53.150;18.160;2023-05-07T08:51:59;5.30;;;3.00;;
77080;SDS011;66009;53.150;18.160;2023-05-07T08:54:24;4.90;;;3.30;;
77080;SDS011;66009;53.150;18.160;2023-05-07T09:01:42;6.90;;;3.30;;
77080;SDS011;66009;53.150;18.160;2023-05-07T09:04:09;4.80;;;3.60;;
77080;SDS011;66009;53.150;18.160;2023-05-07T09:06:36;4.90;;;3.00;;
77080;SDS011;66009;53.150;18.160;2023-05-07T09:09:04;4.50;;;3.20;;
77080;SDS011;66009;53.150;18.160;2023-05-07T09:11:32;5.30;;;3.30;;
77080;SDS011;66009;53.150;18.160;2023-05-07T09:13:59;9.60;;;3.90;;
77080;SDS011;66009;53.150;18.160;2023-05-07T09:16:30;5.00;;;3.00;;
77080;SDS011;66009;53.150;18.160;2023-05-07T09:18:58;4.90;;;3.00;;
77080;SDS011;66009;53.150;18.160;2023-05-07T09:21:24;5.30;;;2.90;;
77080;SDS011;66009;53.150;18.160;2023-05-07T09:23:52;5.20;;;2.70;;
77080;SDS011;66009;53.150;18.160;2023-05-07T09:26:22;6.10;;;3.10;;
77080;SDS011;66009;53.150;18.160;2023-05-07T09:28:48;5.60;;;2.80;;
77080;SDS011;66009;53.150;18.160;2023-05-07T09:31:14;4.40;;;3.30;;
77080;SDS011;66009;53.150;18.160;2023-05-07T09:33:41;4.30;;;3.00;;
77080;SDS011;66009;53.150;18.160;2023-05-07T09:36:08;5.30;;;2.90;;
77080;SDS011;66009;53.150;18.160;2023-05-07T09:38:35;5.60;;;2.80;;
77080;SDS011;66009;53.150;18.160;2023-05-07T09:41:01;3.90;;;2.90;;
77080;SDS011;66009;53.150;18.160;2023-05-07T09:43:31;5.20;;;2.30;;
77080;SDS011;66009;53.150;18.160;2023-05-07T09:45:58;4.00;;;2.40;;
77080;SDS011;66009;53.150;18.160;2023-05-07T09:48:25;5.10;;;2.30;;
77080;SDS011;66009;53.150;18.160;2023-05-07T09:50:55;3.80;;;2.50;;
77080;SDS011;66009;53.150;18.160;2023-05-07T09:53:24;4.20;;;2.10;;
77080;SDS011;66009;53.150;18.160;2023-05-07T09:55:51;4.10;;;2.20;;
77080;SDS011;66009;53.150;18.160;2023-05-07T09:58:18;4.10;;;2.30;;
77080;SDS011;66009;53.150;18.160;2023-05-07T10:00:45;5.00;;;2.20;;
77080;SDS011;66009;53.150;18.160;2023-05-07T10:03:11;3.40;;;1.70;;
77080;SDS011;66009;53.150;18.160;2023-05-07T10:05:42;4.20;;;2.40;;
77080;SDS011;66009;53.150;18.160;2023-05-07T10:08:10;3.90;;;2.20;;
77080;SDS011;66009;53.150;18.160;2023-05-07T10:10:36;4.20;;;2.60;;
77080;SDS011;66009;53.150;18.160;2023-05-07T10:13:04;4.30;;;2.20;;
77080;SDS011;66009;53.150;18.160;2023-05-07T10:15:37;3.50;;;2.00;;
77080;SDS011;66009;53.150;18.160;2023-05-07T10:18:03;7.10;;;2.20;;
77080;SDS011;66009;53.150;18.160;2023-05-07T10:20:29;3.20;;;1.90;;
77080;SDS011;66009;53.150;18.160;2023-05-07T10:22:55;4.50;;;1.90;;
77080;SDS011;66009;53.150;18.160;2023-05-07T10:25:30;3.70;;;2.20;;
77080;SDS011;66009;53.150;18.160;2023-05-07T10:28:02;3.30;;;1.80;;
77080;SDS011;66009;53.150;18.160;2023-05-07T10:30:33;4.40;;;2.40;;
77080;SDS011;66009;53.150;18.160;2023-05-07T10:33:04;3.10;;;1.90;;
77080;SDS011;66009;53.150;18.160;2023-05-07T10:35:38;3.50;;;2.10;;
77080;SDS011;66009;53.150;18.160;2023-05-07T10:38:04;4.60;;;2.00;;
77080;SDS011;66009;53.150;18.160;2023-05-07T10:40:31;4.90;;;2.20;;
77080;SDS011;66009;53.150;18.160;2023-05-07T10:42:57;4.40;;;2.00;;
77080;SDS011;66009;53.150;18.160;2023-05-07T10:45:25;3.70;;;2.10;;
77080;SDS011;66009;53.150;18.160;2023-05-07T10:50:29;5.50;;;3.60;;
77080;SDS011;66009;53.150;18.160;2023-05-07T10:55:52;3.50;;;2.10;;
77080;SDS011;66009;53.150;18.160;2023-05-07T10:58:43;4.50;;;1.90;;
77080;SDS011;66009;53.150;18.160;2023-05-07T11:01:15;3.30;;;1.90;;
77080;SDS011;66009;53.150;18.160;2023-05-07T11:04:14;5.70;;;2.10;;
77080;SDS011;66009;53.150;18.160;2023-05-07T11:06:43;3.90;;;2.00;;
77080;SDS011;66009;53.150;18.160;2023-05-07T11:09:53;3.90;;;2.10;;
77080;SDS011;66009;53.150;18.160;2023-05-07T11:12:14;3.10;;;1.50;;
77080;SDS011;66009;53.150;18.160;2023-05-07T11:14:48;4.80;;;2.70;;
77080;SDS011;66009;53.150;18.160;2023-05-07T11:17:21;3.60;;;1.80;;
77080;SDS011;66009;53.150;18.160;2023-05-07T11:19:54;3.30;;;2.00;;
77080;SDS011;66009;53.150;18.160;2023-05-07T11:22:37;3.30;;;1.80;;
77080;SDS011;66009;53.150;18.160;2023-05-07T11:25:25;4.10;;;2.10;;
77080;SDS011;66009;53.150;18.160;2023-05-07T11:28:06;4.10;;;2.00;;
77080;SDS011;66009;53.150;18.160;2023-05-07T11:30:32;3.80;;;2.20;;
77080;SDS011;66009;53.150;18.160;2023-05-07T11:32:58;4.80;;;2.30;;
77080;SDS011;66009;53.150;18.160;2023-05-07T11:35:24;4.30;;;2.00;;
77080;SDS011;66009;53.150;18.160;2023-05-07T11:37:51;4.20;;;1.90;;
77080;SDS011;66009;53.150;18.160;2023-05-07T11:40:23;4.20;;;1.90;;
77080;SDS011;66009;53.150;18.160;2023-05-07T11:42:49;4.00;;;2.00;;
77080;SDS011;66009;53.150;18.160;2023-05-07T11:45:22;3.70;;;2.00;;
77080;SDS011;66009;53.150;18.160;2023-05-07T11:47:48;4.20;;;2.30;;
77080;SDS011;66009;53.150;18.160;2023-05-07T11:50:13;5.10;;;2.60;;
77080;SDS011;66009;53.150;18.160;2023-05-07T11:52:39;5.10;;;2.20;;
77080;SDS011;66009;53.150;18.160;2023-05-07T11:55:06;4.50;;;2.10;;
77080;SDS011;66009;53.150;18.160;2023-05-07T11:57:33;5.40;;;2.80;;
77080;SDS011;66009;53.150;18.160;2023-05-07T11:59:59;4.40;;;2.00;;
77080;SDS011;66009;53.150;18.160;2023-05-07T12:02:27;4.10;;;2.20;;
77080;SDS011;66009;53.150;18.160;2023-05-07T12:04:54;8.20;;;2.30;;
77080;SDS011;66009;53.150;18.160;2023-05-07T12:07:20;4.20;;;2.10;;
77080;SDS011;66009;53.150;18.160;2023-05-07T12:09:46;4.90;;;2.00;;
77080;SDS011;66009;53.150;18.160;2023-05-07T12:12:13;4.90;;;2.60;;
77080;SDS011;66009;53.150;18.160;2023-05-07T12:14:41;5.40;;;2.00;;
77080;SDS011;66009;53.150;18.160;2023-05-07T12:17:07;4.80;;;2.00;;
77080;SDS011;66009;53.150;18.160;2023-05-07T12:19:34;4.20;;;2.00;;
77080;SDS011;66009;53.150;18.160;2023-05-07T12:22:01;4.70;;;1.90;;
77080;SDS011;66009;53.150;18.160;2023-05-07T12:24:27;9.60;;;4.20;;
77080;SDS011;66009;53.150;18.160;2023-05-07T12:26:53;6.80;;;3.00;;
77080;SDS011;66009;53.150;18.160;2023-05-07T12:29:21;4.40;;;1.90;;
77080;SDS011;66009;53.150;18.160;2023-05-07T12:31:47;3.30;;;1.60;;
77080;SDS011;66009;53.150;18.160;2023-05-07T12:34:12;4.60;;;2.10;;
77080;SDS011;66009;53.150;18.160;2023-05-07T12:36:39;5.20;;;2.10;;
77080;SDS011;66009;53.150;18.160;2023-05-07T12:39:08;3.70;;;1.90;;
77080;SDS011;66009;53.150;18.160;2023-05-07T12:44:21;4.40;;;2.00;;
77080;SDS011;66009;53.150;18.160;2023-05-07T12:46:47;4.10;;;1.90;;
77080;SDS011;66009;53.150;18.160;2023-05-07T12:49:13;4.00;;;2.20;;
77080;SDS011;66009;53.150;18.160;2023-05-07T12:51:39;4.20;;;2.00;;
77080;SDS011;66009;53.150;18.160;2023-05-07T12:54:04;4.50;;;2.00;;
77080;SDS011;66009;53.150;18.160;2023-05-07T12:56:31;3.80;;;1.80;;
77080;SDS011;66009;53.150;18.160;2023-05-07T12:58:57;3.80;;;1.90;;
77080;SDS011;66009;53.150;18.160;2023-05-07T13:01:28;4.50;;;2.00;;
77080;SDS011;66009;53.150;18.160;2023-05-07T13:03:54;3.60;;;1.80;;
77080;SDS011;66009;53.150;18.160;2023-05-07T13:06:20;6.40;;;2.40;;
77080;SDS011;66009;53.150;18.160;2023-05-07T13:08:45;6.40;;;2.00;;
77080;SDS011;66009;53.150;18.160;2023-05-07T13:11:12;3.70;;;1.90;;
77080;SDS011;66009;53.150;18.160;2023-05-07T13:13:38;5.70;;;2.40;;
77080;SDS011;66009;53.150;18.160;2023-05-07T13:16:05;4.00;;;1.80;;
77080;SDS011;66009;53.150;18.160;2023-05-07T13:18:32;4.70;;;2.00;;
77080;SDS011;66009;53.150;18.160;2023-05-07T13:20:58;4.00;;;2.10;;
77080;SDS011;66009;53.150;18.160;2023-05-07T13:23:24;4.80;;;1.90;;
77080;SDS011;66009;53.150;18.160;2023-05-07T13:25:50;3.80;;;2.00;;
77080;SDS011;66009;53.150;18.160;2023-05-07T13:28:18;3.70;;;1.90;;
77080;SDS011;66009;53.150;18.160;2023-05-07T13:30:43;5.30;;;2.30;;
77080;SDS011;66009;53.150;18.160;2023-05-07T13:33:09;4.50;;;2.20;;
77080;SDS011;66009;53.150;18.160;2023-05-07T13:35:35;3.50;;;1.70;;
77080;SDS011;66009;53.150;18.160;2023-05-07T13:38:01;3.60;;;1.70;;
77080;SDS011;66009;53.150;18.160;2023-05-07T13:40:27;5.80;;;2.20;;
77080;SDS011;66009;53.150;18.160;2023-05-07T13:42:53;4.00;;;1.80;;
77080;SDS011;66009;53.150;18.160;2023-05-07T13:45:19;4.40;;;1.60;;
77080;SDS011;66009;53.150;18.160;2023-05-07T13:47:45;4.80;;;2.20;;
77080;SDS011;66009;53.150;18.160;2023-05-07T13:50:11;5.90;;;1.90;;
77080;SDS011;66009;53.150;18.160;2023-05-07T13:52:42;4.60;;;2.00;;
77080;SDS011;66009;53.150;18.160;2023-05-07T13:55:09;4.70;;;1.80;;
77080;SDS011;66009;53.150;18.160;2023-05-07T13:57:36;4.30;;;1.70;;
77080;SDS011;66009;53.150;18.160;2023-05-07T14:00:02;3.90;;;1.80;;
77080;SDS011;66009;53.150;18.160;2023-05-07T14:02:40;3.90;;;2.10;;
77080;SDS011;66009;53.150;18.160;2023-05-07T14:05:06;5.90;;;2.20;;
77080;SDS011;66009;53.150;18.160;2023-05-07T14:07:33;4.80;;;2.00;;
77080;SDS011;66009;53.150;18.160;2023-05-07T14:09:59;3.30;;;1.80;;
77080;SDS011;66009;53.150;18.160;2023-05-07T14:12:25;4.10;;;2.20;;
77080;SDS011;66009;53.150;18.160;2023-05-07T14:14:51;4.00;;;1.80;;
77080;SDS011;66009;53.150;18.160;2023-05-07T14:17:17;6.00;;;1.60;;
77080;SDS011;66009;53.150;18.160;2023-05-07T14:19:43;10.50;;;2.30;;
77080;SDS011;66009;53.150;18.160;2023-05-07T14:22:09;4.70;;;2.00;;
77080;SDS011;66009;53.150;18.160;2023-05-07T14:24:35;3.70;;;1.90;;
77080;SDS011;66009;53.150;18.160;2023-05-07T14:27:01;5.10;;;2.20;;
77080;SDS011;66009;53.150;18.160;2023-05-07T14:29:27;3.80;;;2.20;;
77080;SDS011;66009;53.150;18.160;2023-05-07T14:31:53;4.70;;;2.40;;
77080;SDS011;66009;53.150;18.160;2023-05-07T14:34:19;3.90;;;1.60;;
77080;SDS011;66009;53.150;18.160;2023-05-07T14:36:45;4.70;;;1.90;;
77080;SDS011;66009;53.150;18.160;2023-05-07T14:39:10;4.00;;;1.70;;
77080;SDS011;66009;53.150;18.160;2023-05-07T14:41:36;4.90;;;1.90;;
77080;SDS011;66009;53.150;18.160;2023-05-07T14:44:02;3.60;;;1.80;;
77080;SDS011;66009;53.150;18.160;2023-05-07T14:46:29;3.60;;;1.90;;